Potter, Nebraska
Current Conditions -  °F | °C
As of 6:15 AM on Sunday 23 Nov 2014 (Local Time) from KIBM Reporting Station
Clear Clear  
Wind Chill: 21°   Ceiling: Unl
Heat Index: 33°   Visibility: 10mi
Dew Point: 17°   Wind: 21mph
Humidity: 52%   Direction: 340°NNW
Pressure: 29.7"   Gusts: 26mph
Location:  41.22°N, 103.32°W
Report Text: KIBM 231315Z AUTO 34018G23KT 10SM CLR 00/M08 A2970 RMK AO2 T00041085
Loading
Personal Weather Stations






























Interactive Weather Map New forecast layout! Learn more

10-Day Weather Forecast

Advertisements
Track Severe Weather on mobile